sensor_id;sensor_type;location;lat;lon;timestamp;P1;durP1;ratioP1;P2;durP2;ratioP2
81036;SDS011;70521;47.468;19.306;2024-02-16T00:00:47;31.77;;;28.88;;
81036;SDS011;70521;47.468;19.306;2024-02-16T00:03:48;29.83;;;27.25;;
81036;SDS011;70521;47.468;19.306;2024-02-16T00:06:49;29.73;;;27.23;;
81036;SDS011;70521;47.468;19.306;2024-02-16T00:09:50;24.55;;;22.23;;
81036;SDS011;70521;47.468;19.306;2024-02-16T00:12:51;32.40;;;29.95;;
81036;SDS011;70521;47.468;19.306;2024-02-16T00:15:52;30.55;;;28.15;;
81036;SDS011;70521;47.468;19.306;2024-02-16T00:18:53;21.98;;;19.95;;
81036;SDS011;70521;47.468;19.306;2024-02-16T00:21:54;29.30;;;26.83;;
81036;SDS011;70521;47.468;19.306;2024-02-16T00:24:56;30.35;;;27.83;;
81036;SDS011;70521;47.468;19.306;2024-02-16T00:27:57;25.42;;;23.27;;
81036;SDS011;70521;47.468;19.306;2024-02-16T00:30:58;24.40;;;22.00;;
81036;SDS011;70521;47.468;19.306;2024-02-16T00:33:59;27.05;;;24.33;;
81036;SDS011;70521;47.468;19.306;2024-02-16T00:37:00;28.35;;;26.05;;
81036;SDS011;70521;47.468;19.306;2024-02-16T00:40:01;23.83;;;21.60;;
81036;SDS011;70521;47.468;19.306;2024-02-16T00:43:02;28.33;;;25.92;;
81036;SDS011;70521;47.468;19.306;2024-02-16T00:46:04;29.25;;;26.67;;
81036;SDS011;70521;47.468;19.306;2024-02-16T00:49:05;27.77;;;25.23;;
81036;SDS011;70521;47.468;19.306;2024-02-16T00:52:05;28.65;;;26.15;;
81036;SDS011;70521;47.468;19.306;2024-02-16T00:55:06;27.35;;;24.70;;
81036;SDS011;70521;47.468;19.306;2024-02-16T00:58:07;33.20;;;30.63;;
81036;SDS011;70521;47.468;19.306;2024-02-16T01:01:08;30.17;;;27.70;;
81036;SDS011;70521;47.468;19.306;2024-02-16T01:04:11;30.05;;;27.55;;
81036;SDS011;70521;47.468;19.306;2024-02-16T01:07:12;28.20;;;25.60;;
81036;SDS011;70521;47.468;19.306;2024-02-16T01:10:13;29.02;;;26.33;;
81036;SDS011;70521;47.468;19.306;2024-02-16T01:13:14;29.63;;;27.20;;
81036;SDS011;70521;47.468;19.306;2024-02-16T01:16:15;28.33;;;25.70;;
81036;SDS011;70521;47.468;19.306;2024-02-16T01:19:18;29.45;;;27.13;;
81036;SDS011;70521;47.468;19.306;2024-02-16T01:22:19;27.42;;;24.73;;
81036;SDS011;70521;47.468;19.306;2024-02-16T01:25:20;32.65;;;29.58;;
81036;SDS011;70521;47.468;19.306;2024-02-16T01:28:21;28.80;;;26.20;;
81036;SDS011;70521;47.468;19.306;2024-02-16T01:31:22;28.92;;;26.52;;
81036;SDS011;70521;47.468;19.306;2024-02-16T01:34:23;29.25;;;26.85;;
81036;SDS011;70521;47.468;19.306;2024-02-16T01:37:24;32.30;;;29.65;;
81036;SDS011;70521;47.468;19.306;2024-02-16T01:40:25;29.05;;;26.58;;
81036;SDS011;70521;47.468;19.306;2024-02-16T01:43:26;31.65;;;29.40;;
81036;SDS011;70521;47.468;19.306;2024-02-16T01:46:28;27.63;;;25.33;;
81036;SDS011;70521;47.468;19.306;2024-02-16T01:49:29;30.83;;;28.35;;
81036;SDS011;70521;47.468;19.306;2024-02-16T01:52:30;28.55;;;26.02;;
81036;SDS011;70521;47.468;19.306;2024-02-16T01:55:31;28.73;;;26.17;;
81036;SDS011;70521;47.468;19.306;2024-02-16T01:58:33;27.92;;;25.58;;
81036;SDS011;70521;47.468;19.306;2024-02-16T02:01:34;26.10;;;23.85;;
81036;SDS011;70521;47.468;19.306;2024-02-16T02:04:35;34.05;;;30.98;;
81036;SDS011;70521;47.468;19.306;2024-02-16T02:07:36;28.20;;;25.52;;
81036;SDS011;70521;47.468;19.306;2024-02-16T02:10:37;33.22;;;30.92;;
81036;SDS011;70521;47.468;19.306;2024-02-16T02:13:38;31.20;;;28.77;;
81036;SDS011;70521;47.468;19.306;2024-02-16T02:16:39;25.85;;;23.88;;
81036;SDS011;70521;47.468;19.306;2024-02-16T02:19:40;25.42;;;23.27;;
81036;SDS011;70521;47.468;19.306;2024-02-16T02:22:41;33.08;;;30.50;;
81036;SDS011;70521;47.468;19.306;2024-02-16T02:25:42;30.40;;;28.08;;
81036;SDS011;70521;47.468;19.306;2024-02-16T02:28:43;26.35;;;24.02;;
81036;SDS011;70521;47.468;19.306;2024-02-16T02:31:44;35.10;;;32.50;;
81036;SDS011;70521;47.468;19.306;2024-02-16T02:34:45;27.38;;;25.20;;
81036;SDS011;70521;47.468;19.306;2024-02-16T02:37:45;29.65;;;27.08;;
81036;SDS011;70521;47.468;19.306;2024-02-16T02:40:46;29.75;;;27.50;;
81036;SDS011;70521;47.468;19.306;2024-02-16T02:43:47;30.08;;;27.33;;
81036;SDS011;70521;47.468;19.306;2024-02-16T02:46:48;23.50;;;21.45;;
81036;SDS011;70521;47.468;19.306;2024-02-16T02:49:49;26.65;;;24.40;;
81036;SDS011;70521;47.468;19.306;2024-02-16T02:52:50;27.60;;;24.98;;
81036;SDS011;70521;47.468;19.306;2024-02-16T02:55:51;26.95;;;24.48;;
81036;SDS011;70521;47.468;19.306;2024-02-16T02:58:52;25.17;;;22.98;;
81036;SDS011;70521;47.468;19.306;2024-02-16T03:01:53;27.10;;;24.38;;
81036;SDS011;70521;47.468;19.306;2024-02-16T03:04:53;25.85;;;23.58;;
81036;SDS011;70521;47.468;19.306;2024-02-16T03:07:54;26.40;;;24.20;;
81036;SDS011;70521;47.468;19.306;2024-02-16T03:10:55;24.70;;;22.60;;
81036;SDS011;70521;47.468;19.306;2024-02-16T03:13:56;24.67;;;22.42;;
81036;SDS011;70521;47.468;19.306;2024-02-16T03:16:57;29.48;;;26.88;;
81036;SDS011;70521;47.468;19.306;2024-02-16T03:19:58;26.15;;;23.73;;
81036;SDS011;70521;47.468;19.306;2024-02-16T03:22:59;26.50;;;24.02;;
81036;SDS011;70521;47.468;19.306;2024-02-16T03:26:00;26.85;;;24.67;;
81036;SDS011;70521;47.468;19.306;2024-02-16T03:29:01;23.45;;;21.25;;
81036;SDS011;70521;47.468;19.306;2024-02-16T03:32:02;27.15;;;24.88;;
81036;SDS011;70521;47.468;19.306;2024-02-16T03:35:03;26.42;;;24.20;;
81036;SDS011;70521;47.468;19.306;2024-02-16T03:38:04;27.42;;;24.73;;
81036;SDS011;70521;47.468;19.306;2024-02-16T03:41:05;27.08;;;24.67;;
81036;SDS011;70521;47.468;19.306;2024-02-16T03:44:07;27.65;;;25.00;;
81036;SDS011;70521;47.468;19.306;2024-02-16T03:47:07;34.42;;;31.92;;
81036;SDS011;70521;47.468;19.306;2024-02-16T03:50:09;31.83;;;28.98;;
81036;SDS011;70521;47.468;19.306;2024-02-16T03:53:11;34.58;;;31.63;;
81036;SDS011;70521;47.468;19.306;2024-02-16T03:56:11;30.38;;;27.77;;
81036;SDS011;70521;47.468;19.306;2024-02-16T03:59:12;34.42;;;31.55;;
81036;SDS011;70521;47.468;19.306;2024-02-16T04:02:13;31.80;;;29.05;;
81036;SDS011;70521;47.468;19.306;2024-02-16T04:05:14;32.60;;;29.73;;
81036;SDS011;70521;47.468;19.306;2024-02-16T04:08:15;35.00;;;31.73;;
81036;SDS011;70521;47.468;19.306;2024-02-16T04:11:16;39.08;;;36.00;;
81036;SDS011;70521;47.468;19.306;2024-02-16T04:14:18;27.67;;;24.92;;
81036;SDS011;70521;47.468;19.306;2024-02-16T04:17:18;37.50;;;34.35;;
81036;SDS011;70521;47.468;19.306;2024-02-16T04:20:20;34.88;;;31.98;;
81036;SDS011;70521;47.468;19.306;2024-02-16T04:23:21;31.02;;;28.08;;
81036;SDS011;70521;47.468;19.306;2024-02-16T04:26:21;39.55;;;36.53;;
81036;SDS011;70521;47.468;19.306;2024-02-16T04:29:22;36.70;;;33.47;;
81036;SDS011;70521;47.468;19.306;2024-02-16T04:32:23;36.10;;;32.88;;
81036;SDS011;70521;47.468;19.306;2024-02-16T04:35:26;36.55;;;33.53;;
81036;SDS011;70521;47.468;19.306;2024-02-16T04:38:26;34.83;;;31.83;;
81036;SDS011;70521;47.468;19.306;2024-02-16T04:41:27;39.25;;;35.78;;
81036;SDS011;70521;47.468;19.306;2024-02-16T04:44:28;37.78;;;34.40;;
81036;SDS011;70521;47.468;19.306;2024-02-16T04:47:29;36.63;;;33.35;;
81036;SDS011;70521;47.468;19.306;2024-02-16T04:50:31;38.88;;;35.40;;
81036;SDS011;70521;47.468;19.306;2024-02-16T04:53:32;38.03;;;34.60;;
81036;SDS011;70521;47.468;19.306;2024-02-16T04:56:33;38.28;;;35.17;;
81036;SDS011;70521;47.468;19.306;2024-02-16T04:59:34;35.70;;;32.63;;
81036;SDS011;70521;47.468;19.306;2024-02-16T05:02:35;37.50;;;34.58;;
81036;SDS011;70521;47.468;19.306;2024-02-16T05:05:36;29.02;;;26.25;;
81036;SDS011;70521;47.468;19.306;2024-02-16T05:08:37;37.10;;;33.53;;
81036;SDS011;70521;47.468;19.306;2024-02-16T05:11:38;42.00;;;38.70;;
81036;SDS011;70521;47.468;19.306;2024-02-16T05:14:39;41.03;;;37.58;;
81036;SDS011;70521;47.468;19.306;2024-02-16T05:17:41;49.20;;;45.67;;
81036;SDS011;70521;47.468;19.306;2024-02-16T05:20:42;35.00;;;31.90;;
81036;SDS011;70521;47.468;19.306;2024-02-16T05:23:43;30.55;;;27.38;;
81036;SDS011;70521;47.468;19.306;2024-02-16T05:26:44;33.22;;;30.23;;
81036;SDS011;70521;47.468;19.306;2024-02-16T05:29:46;38.78;;;35.38;;
81036;SDS011;70521;47.468;19.306;2024-02-16T05:32:47;42.95;;;39.78;;
81036;SDS011;70521;47.468;19.306;2024-02-16T05:35:49;42.17;;;39.08;;
81036;SDS011;70521;47.468;19.306;2024-02-16T05:38:55;38.97;;;35.72;;
81036;SDS011;70521;47.468;19.306;2024-02-16T05:41:57;32.17;;;29.13;;
81036;SDS011;70521;47.468;19.306;2024-02-16T05:44:58;36.88;;;33.58;;
81036;SDS011;70521;47.468;19.306;2024-02-16T05:47:59;35.70;;;32.42;;
81036;SDS011;70521;47.468;19.306;2024-02-16T05:51:00;35.45;;;32.35;;
81036;SDS011;70521;47.468;19.306;2024-02-16T05:54:01;38.67;;;35.50;;
81036;SDS011;70521;47.468;19.306;2024-02-16T05:57:02;34.20;;;31.23;;
81036;SDS011;70521;47.468;19.306;2024-02-16T06:00:05;34.65;;;31.73;;
81036;SDS011;70521;47.468;19.306;2024-02-16T06:03:06;35.42;;;32.38;;
81036;SDS011;70521;47.468;19.306;2024-02-16T06:06:08;34.17;;;31.17;;
81036;SDS011;70521;47.468;19.306;2024-02-16T06:09:08;33.08;;;30.30;;
81036;SDS011;70521;47.468;19.306;2024-02-16T06:12:09;33.95;;;31.13;;
81036;SDS011;70521;47.468;19.306;2024-02-16T06:15:12;33.42;;;30.83;;
81036;SDS011;70521;47.468;19.306;2024-02-16T06:18:13;34.88;;;32.10;;
81036;SDS011;70521;47.468;19.306;2024-02-16T06:21:13;39.45;;;36.55;;
81036;SDS011;70521;47.468;19.306;2024-02-16T06:24:16;33.53;;;30.98;;
81036;SDS011;70521;47.468;19.306;2024-02-16T06:27:18;36.10;;;33.30;;
81036;SDS011;70521;47.468;19.306;2024-02-16T06:30:20;34.60;;;32.00;;
81036;SDS011;70521;47.468;19.306;2024-02-16T06:33:21;40.28;;;37.63;;
81036;SDS011;70521;47.468;19.306;2024-02-16T06:36:22;35.30;;;32.67;;
81036;SDS011;70521;47.468;19.306;2024-02-16T06:39:23;38.70;;;35.90;;
81036;SDS011;70521;47.468;19.306;2024-02-16T06:42:24;30.10;;;27.50;;
81036;SDS011;70521;47.468;19.306;2024-02-16T06:45:25;33.03;;;30.45;;
81036;SDS011;70521;47.468;19.306;2024-02-16T06:48:26;29.70;;;27.17;;
81036;SDS011;70521;47.468;19.306;2024-02-16T06:51:27;26.05;;;23.65;;
81036;SDS011;70521;47.468;19.306;2024-02-16T06:54:29;27.33;;;25.08;;
81036;SDS011;70521;47.468;19.306;2024-02-16T06:57:30;29.42;;;26.98;;
81036;SDS011;70521;47.468;19.306;2024-02-16T07:00:32;27.70;;;25.48;;
81036;SDS011;70521;47.468;19.306;2024-02-16T07:03:33;23.58;;;21.58;;
81036;SDS011;70521;47.468;19.306;2024-02-16T07:06:34;27.70;;;25.17;;
81036;SDS011;70521;47.468;19.306;2024-02-16T07:09:35;28.63;;;25.95;;
81036;SDS011;70521;47.468;19.306;2024-02-16T07:12:36;28.20;;;25.60;;
81036;SDS011;70521;47.468;19.306;2024-02-16T07:15:37;21.98;;;19.77;;
81036;SDS011;70521;47.468;19.306;2024-02-16T07:18:38;26.77;;;24.48;;
81036;SDS011;70521;47.468;19.306;2024-02-16T07:21:39;25.42;;;23.10;;
81036;SDS011;70521;47.468;19.306;2024-02-16T07:24:40;26.10;;;23.80;;
81036;SDS011;70521;47.468;19.306;2024-02-16T07:27:41;19.67;;;17.63;;
81036;SDS011;70521;47.468;19.306;2024-02-16T07:30:42;19.77;;;17.88;;
81036;SDS011;70521;47.468;19.306;2024-02-16T07:33:43;20.02;;;18.05;;
81036;SDS011;70521;47.468;19.306;2024-02-16T07:36:44;16.35;;;14.70;;
81036;SDS011;70521;47.468;19.306;2024-02-16T07:39:45;19.60;;;17.80;;
81036;SDS011;70521;47.468;19.306;2024-02-16T07:42:46;17.33;;;15.68;;
81036;SDS011;70521;47.468;19.306;2024-02-16T07:45:47;16.63;;;15.07;;
81036;SDS011;70521;47.468;19.306;2024-02-16T07:48:48;13.52;;;12.23;;
81036;SDS011;70521;47.468;19.306;2024-02-16T07:51:49;16.63;;;15.13;;
81036;SDS011;70521;47.468;19.306;2024-02-16T07:54:50;16.77;;;15.35;;
81036;SDS011;70521;47.468;19.306;2024-02-16T07:57:52;17.60;;;15.80;;
81036;SDS011;70521;47.468;19.306;2024-02-16T08:00:53;16.40;;;14.77;;
81036;SDS011;70521;47.468;19.306;2024-02-16T08:03:56;14.77;;;13.35;;
81036;SDS011;70521;47.468;19.306;2024-02-16T08:06:57;14.35;;;13.13;;
81036;SDS011;70521;47.468;19.306;2024-02-16T08:09:57;14.43;;;12.90;;
81036;SDS011;70521;47.468;19.306;2024-02-16T08:12:58;16.48;;;14.88;;
81036;SDS011;70521;47.468;19.306;2024-02-16T08:16:00;16.77;;;15.18;;
81036;SDS011;70521;47.468;19.306;2024-02-16T08:19:04;15.70;;;14.30;;
81036;SDS011;70521;47.468;19.306;2024-02-16T08:22:07;15.38;;;13.65;;
81036;SDS011;70521;47.468;19.306;2024-02-16T08:25:08;15.77;;;14.38;;
81036;SDS011;70521;47.468;19.306;2024-02-16T08:28:09;13.27;;;12.05;;
81036;SDS011;70521;47.468;19.306;2024-02-16T08:31:10;12.32;;;11.02;;
81036;SDS011;70521;47.468;19.306;2024-02-16T08:34:15;14.75;;;13.45;;
81036;SDS011;70521;47.468;19.306;2024-02-16T08:37:16;13.27;;;12.02;;
81036;SDS011;70521;47.468;19.306;2024-02-16T08:40:17;13.35;;;11.95;;
81036;SDS011;70521;47.468;19.306;2024-02-16T08:43:18;13.82;;;12.52;;
81036;SDS011;70521;47.468;19.306;2024-02-16T08:46:18;12.02;;;10.93;;
81036;SDS011;70521;47.468;19.306;2024-02-16T08:49:20;12.45;;;11.15;;
81036;SDS011;70521;47.468;19.306;2024-02-16T08:52:21;15.60;;;14.13;;
81036;SDS011;70521;47.468;19.306;2024-02-16T08:55:22;13.63;;;12.32;;
81036;SDS011;70521;47.468;19.306;2024-02-16T08:58:23;12.90;;;11.70;;
81036;SDS011;70521;47.468;19.306;2024-02-16T09:01:33;12.45;;;10.88;;
81036;SDS011;70521;47.468;19.306;2024-02-16T09:04:34;13.15;;;11.82;;
81036;SDS011;70521;47.468;19.306;2024-02-16T09:07:35;13.88;;;12.57;;
81036;SDS011;70521;47.468;19.306;2024-02-16T09:10:36;12.02;;;10.85;;
81036;SDS011;70521;47.468;19.306;2024-02-16T09:13:39;13.60;;;12.10;;
81036;SDS011;70521;47.468;19.306;2024-02-16T09:16:40;12.27;;;11.07;;
81036;SDS011;70521;47.468;19.306;2024-02-16T09:19:41;14.13;;;12.65;;
81036;SDS011;70521;47.468;19.306;2024-02-16T09:22:42;13.35;;;12.25;;
81036;SDS011;70521;47.468;19.306;2024-02-16T09:25:43;12.90;;;11.68;;
81036;SDS011;70521;47.468;19.306;2024-02-16T09:28:44;14.60;;;13.23;;
81036;SDS011;70521;47.468;19.306;2024-02-16T09:31:48;13.93;;;12.63;;
81036;SDS011;70521;47.468;19.306;2024-02-16T09:34:49;13.60;;;11.77;;
81036;SDS011;70521;47.468;19.306;2024-02-16T09:37:51;12.50;;;11.20;;
81036;SDS011;70521;47.468;19.306;2024-02-16T09:40:52;12.95;;;11.80;;
81036;SDS011;70521;47.468;19.306;2024-02-16T09:43:53;13.98;;;12.77;;
81036;SDS011;70521;47.468;19.306;2024-02-16T09:46:55;13.02;;;11.55;;
81036;SDS011;70521;47.468;19.306;2024-02-16T09:49:56;13.52;;;12.13;;
81036;SDS011;70521;47.468;19.306;2024-02-16T09:52:57;13.40;;;12.15;;
81036;SDS011;70521;47.468;19.306;2024-02-16T09:55:58;12.52;;;11.25;;
81036;SDS011;70521;47.468;19.306;2024-02-16T09:58:59;13.77;;;12.38;;
81036;SDS011;70521;47.468;19.306;2024-02-16T10:02:00;12.20;;;11.00;;
81036;SDS011;70521;47.468;19.306;2024-02-16T10:05:09;11.98;;;10.88;;
81036;SDS011;70521;47.468;19.306;2024-02-16T10:08:13;12.40;;;11.38;;
81036;SDS011;70521;47.468;19.306;2024-02-16T10:11:14;11.15;;;10.05;;
81036;SDS011;70521;47.468;19.306;2024-02-16T10:14:15;12.25;;;11.02;;
81036;SDS011;70521;47.468;19.306;2024-02-16T10:17:17;12.98;;;11.68;;
81036;SDS011;70521;47.468;19.306;2024-02-16T10:20:18;13.10;;;11.90;;
81036;SDS011;70521;47.468;19.306;2024-02-16T10:23:19;12.63;;;11.48;;
81036;SDS011;70521;47.468;19.306;2024-02-16T10:26:19;12.88;;;11.60;;
81036;SDS011;70521;47.468;19.306;2024-02-16T10:29:21;14.73;;;12.10;;
81036;SDS011;70521;47.468;19.306;2024-02-16T10:32:24;12.90;;;11.60;;
81036;SDS011;70521;47.468;19.306;2024-02-16T10:35:25;12.35;;;11.05;;
81036;SDS011;70521;47.468;19.306;2024-02-16T10:38:27;12.43;;;11.32;;
81036;SDS011;70521;47.468;19.306;2024-02-16T10:41:28;12.05;;;10.95;;
81036;SDS011;70521;47.468;19.306;2024-02-16T10:44:29;13.77;;;12.00;;
81036;SDS011;70521;47.468;19.306;2024-02-16T10:47:30;13.35;;;11.25;;
81036;SDS011;70521;47.468;19.306;2024-02-16T10:50:32;13.27;;;11.38;;
81036;SDS011;70521;47.468;19.306;2024-02-16T10:53:33;13.55;;;12.02;;
81036;SDS011;70521;47.468;19.306;2024-02-16T10:56:34;13.75;;;12.35;;
81036;SDS011;70521;47.468;19.306;2024-02-16T10:59:41;15.70;;;14.00;;
81036;SDS011;70521;47.468;19.306;2024-02-16T11:02:56;16.65;;;13.35;;
81036;SDS011;70521;47.468;19.306;2024-02-16T11:05:59;14.25;;;12.85;;
81036;SDS011;70521;47.468;19.306;2024-02-16T11:09:03;15.10;;;13.65;;
81036;SDS011;70521;47.468;19.306;2024-02-16T11:12:14;16.48;;;14.98;;
81036;SDS011;70521;47.468;19.306;2024-02-16T11:15:26;17.10;;;14.38;;
81036;SDS011;70521;47.468;19.306;2024-02-16T11:18:31;14.63;;;13.00;;
81036;SDS011;70521;47.468;19.306;2024-02-16T11:21:32;15.65;;;14.10;;
81036;SDS011;70521;47.468;19.306;2024-02-16T11:24:34;17.13;;;15.45;;
81036;SDS011;70521;47.468;19.306;2024-02-16T11:27:35;17.45;;;16.00;;
81036;SDS011;70521;47.468;19.306;2024-02-16T11:30:35;17.33;;;15.82;;
81036;SDS011;70521;47.468;19.306;2024-02-16T11:33:36;14.93;;;13.40;;
81036;SDS011;70521;47.468;19.306;2024-02-16T11:36:43;16.08;;;14.55;;
81036;SDS011;70521;47.468;19.306;2024-02-16T11:39:44;13.00;;;11.77;;
81036;SDS011;70521;47.468;19.306;2024-02-16T11:42:46;15.18;;;13.75;;
81036;SDS011;70521;47.468;19.306;2024-02-16T11:45:47;17.13;;;15.35;;
81036;SDS011;70521;47.468;19.306;2024-02-16T11:48:48;17.08;;;15.55;;
81036;SDS011;70521;47.468;19.306;2024-02-16T11:51:49;16.65;;;15.15;;
81036;SDS011;70521;47.468;19.306;2024-02-16T11:54:50;14.38;;;13.18;;
81036;SDS011;70521;47.468;19.306;2024-02-16T11:57:51;12.07;;;10.63;;
81036;SDS011;70521;47.468;19.306;2024-02-16T12:00:52;13.68;;;12.55;;
81036;SDS011;70521;47.468;19.306;2024-02-16T12:03:53;16.50;;;14.93;;
81036;SDS011;70521;47.468;19.306;2024-02-16T12:06:57;13.35;;;11.43;;
81036;SDS011;70521;47.468;19.306;2024-02-16T12:09:59;15.75;;;14.35;;
81036;SDS011;70521;47.468;19.306;2024-02-16T12:13:00;15.23;;;13.77;;
81036;SDS011;70521;47.468;19.306;2024-02-16T12:16:01;13.98;;;12.77;;
81036;SDS011;70521;47.468;19.306;2024-02-16T12:19:05;15.02;;;13.63;;
81036;SDS011;70521;47.468;19.306;2024-02-16T12:22:06;13.13;;;12.00;;
81036;SDS011;70521;47.468;19.306;2024-02-16T12:25:07;15.40;;;14.15;;
81036;SDS011;70521;47.468;19.306;2024-02-16T12:28:08;15.02;;;13.73;;
81036;SDS011;70521;47.468;19.306;2024-02-16T12:31:09;15.35;;;14.10;;
81036;SDS011;70521;47.468;19.306;2024-02-16T12:34:10;15.35;;;13.90;;
81036;SDS011;70521;47.468;19.306;2024-02-16T12:37:11;17.70;;;16.15;;
81036;SDS011;70521;47.468;19.306;2024-02-16T12:40:12;13.65;;;12.48;;
81036;SDS011;70521;47.468;19.306;2024-02-16T12:43:13;14.52;;;13.30;;
81036;SDS011;70521;47.468;19.306;2024-02-16T12:46:15;13.98;;;12.73;;
81036;SDS011;70521;47.468;19.306;2024-02-16T12:49:16;8.88;;;8.35;;
81036;SDS011;70521;47.468;19.306;2024-02-16T12:52:19;11.88;;;10.88;;
81036;SDS011;70521;47.468;19.306;2024-02-16T12:55:20;14.40;;;13.32;;
81036;SDS011;70521;47.468;19.306;2024-02-16T12:58:22;11.52;;;10.30;;
81036;SDS011;70521;47.468;19.306;2024-02-16T13:01:23;13.65;;;12.27;;
81036;SDS011;70521;47.468;19.306;2024-02-16T13:04:24;11.98;;;10.95;;
81036;SDS011;70521;47.468;19.306;2024-02-16T13:07:25;12.77;;;11.70;;
81036;SDS011;70521;47.468;19.306;2024-02-16T13:10:26;11.05;;;10.15;;
81036;SDS011;70521;47.468;19.306;2024-02-16T13:13:27;13.52;;;12.35;;
81036;SDS011;70521;47.468;19.306;2024-02-16T13:16:28;13.63;;;12.43;;
81036;SDS011;70521;47.468;19.306;2024-02-16T13:19:29;12.55;;;11.60;;
81036;SDS011;70521;47.468;19.306;2024-02-16T13:22:30;11.35;;;10.38;;
81036;SDS011;70521;47.468;19.306;2024-02-16T13:25:31;8.80;;;8.10;;
81036;SDS011;70521;47.468;19.306;2024-02-16T13:28:32;12.77;;;11.57;;
81036;SDS011;70521;47.468;19.306;2024-02-16T13:31:34;11.35;;;10.55;;
81036;SDS011;70521;47.468;19.306;2024-02-16T13:34:35;12.38;;;11.45;;
81036;SDS011;70521;47.468;19.306;2024-02-16T13:37:36;12.50;;;11.40;;
81036;SDS011;70521;47.468;19.306;2024-02-16T13:40:37;13.55;;;12.27;;
81036;SDS011;70521;47.468;19.306;2024-02-16T13:43:38;12.80;;;11.68;;
81036;SDS011;70521;47.468;19.306;2024-02-16T13:46:39;15.63;;;14.43;;
81036;SDS011;70521;47.468;19.306;2024-02-16T13:49:41;13.60;;;12.50;;
81036;SDS011;70521;47.468;19.306;2024-02-16T13:52:42;14.82;;;13.60;;
81036;SDS011;70521;47.468;19.306;2024-02-16T13:55:43;14.75;;;13.27;;
81036;SDS011;70521;47.468;19.306;2024-02-16T13:58:47;14.75;;;13.63;;
81036;SDS011;70521;47.468;19.306;2024-02-16T14:01:48;13.57;;;12.52;;
81036;SDS011;70521;47.468;19.306;2024-02-16T14:04:49;13.63;;;12.35;;
81036;SDS011;70521;47.468;19.306;2024-02-16T14:07:51;13.25;;;11.95;;
81036;SDS011;70521;47.468;19.306;2024-02-16T14:10:51;16.88;;;15.48;;
81036;SDS011;70521;47.468;19.306;2024-02-16T14:13:52;14.77;;;13.55;;
81036;SDS011;70521;47.468;19.306;2024-02-16T14:16:53;11.90;;;10.75;;
81036;SDS011;70521;47.468;19.306;2024-02-16T14:19:55;13.52;;;12.35;;
81036;SDS011;70521;47.468;19.306;2024-02-16T14:22:55;13.05;;;11.95;;
81036;SDS011;70521;47.468;19.306;2024-02-16T14:25:57;14.43;;;13.25;;
81036;SDS011;70521;47.468;19.306;2024-02-16T14:28:58;14.48;;;13.30;;
81036;SDS011;70521;47.468;19.306;2024-02-16T14:31:59;15.50;;;14.10;;
81036;SDS011;70521;47.468;19.306;2024-02-16T14:35:00;13.55;;;12.32;;
81036;SDS011;70521;47.468;19.306;2024-02-16T14:38:02;14.77;;;13.60;;
81036;SDS011;70521;47.468;19.306;2024-02-16T14:41:03;13.52;;;12.35;;
81036;SDS011;70521;47.468;19.306;2024-02-16T14:44:04;13.55;;;12.23;;
81036;SDS011;70521;47.468;19.306;2024-02-16T14:47:05;14.82;;;13.68;;
81036;SDS011;70521;47.468;19.306;2024-02-16T14:50:06;14.65;;;13.60;;
81036;SDS011;70521;47.468;19.306;2024-02-16T14:53:08;13.35;;;12.30;;
81036;SDS011;70521;47.468;19.306;2024-02-16T14:56:09;16.27;;;15.07;;
81036;SDS011;70521;47.468;19.306;2024-02-16T14:59:10;13.13;;;12.02;;
81036;SDS011;70521;47.468;19.306;2024-02-16T15:02:11;14.15;;;13.05;;
81036;SDS011;70521;47.468;19.306;2024-02-16T15:05:12;16.23;;;14.68;;
81036;SDS011;70521;47.468;19.306;2024-02-16T15:08:13;16.58;;;15.20;;
81036;SDS011;70521;47.468;19.306;2024-02-16T15:11:15;18.35;;;16.75;;
81036;SDS011;70521;47.468;19.306;2024-02-16T15:14:18;17.42;;;16.10;;
81036;SDS011;70521;47.468;19.306;2024-02-16T15:17:18;13.55;;;12.25;;
81036;SDS011;70521;47.468;19.306;2024-02-16T15:20:20;20.60;;;19.00;;
81036;SDS011;70521;47.468;19.306;2024-02-16T15:23:23;16.90;;;15.40;;
81036;SDS011;70521;47.468;19.306;2024-02-16T15:26:24;19.38;;;17.48;;
81036;SDS011;70521;47.468;19.306;2024-02-16T15:29:26;18.73;;;16.98;;
81036;SDS011;70521;47.468;19.306;2024-02-16T15:32:27;15.38;;;14.13;;
81036;SDS011;70521;47.468;19.306;2024-02-16T15:35:29;15.20;;;13.85;;
81036;SDS011;70521;47.468;19.306;2024-02-16T15:38:30;18.42;;;15.50;;
81036;SDS011;70521;47.468;19.306;2024-02-16T15:41:31;17.17;;;15.65;;
81036;SDS011;70521;47.468;19.306;2024-02-16T15:44:32;17.23;;;15.52;;
81036;SDS011;70521;47.468;19.306;2024-02-16T15:47:33;16.92;;;14.10;;
81036;SDS011;70521;47.468;19.306;2024-02-16T15:50:38;20.13;;;18.40;;
81036;SDS011;70521;47.468;19.306;2024-02-16T15:53:39;19.52;;;17.65;;
81036;SDS011;70521;47.468;19.306;2024-02-16T15:56:41;19.80;;;17.92;;
81036;SDS011;70521;47.468;19.306;2024-02-16T15:59:42;22.48;;;20.77;;
81036;SDS011;70521;47.468;19.306;2024-02-16T16:02:43;19.33;;;17.48;;
81036;SDS011;70521;47.468;19.306;2024-02-16T16:05:44;22.17;;;19.98;;
81036;SDS011;70521;47.468;19.306;2024-02-16T16:08:45;22.77;;;20.98;;
81036;SDS011;70521;47.468;19.306;2024-02-16T16:11:46;21.52;;;19.77;;
81036;SDS011;70521;47.468;19.306;2024-02-16T16:14:47;18.45;;;16.73;;
81036;SDS011;70521;47.468;19.306;2024-02-16T16:17:48;21.77;;;19.95;;
81036;SDS011;70521;47.468;19.306;2024-02-16T16:20:49;20.52;;;18.83;;
81036;SDS011;70521;47.468;19.306;2024-02-16T16:23:50;22.08;;;20.02;;
81036;SDS011;70521;47.468;19.306;2024-02-16T16:26:51;22.38;;;20.50;;
81036;SDS011;70521;47.468;19.306;2024-02-16T16:29:53;23.17;;;19.98;;
81036;SDS011;70521;47.468;19.306;2024-02-16T16:32:54;22.25;;;20.17;;
81036;SDS011;70521;47.468;19.306;2024-02-16T16:35:56;19.63;;;17.98;;
81036;SDS011;70521;47.468;19.306;2024-02-16T16:38:58;20.67;;;18.88;;
81036;SDS011;70521;47.468;19.306;2024-02-16T16:41:59;21.98;;;19.98;;
81036;SDS011;70521;47.468;19.306;2024-02-16T16:45:00;20.77;;;18.88;;
81036;SDS011;70521;47.468;19.306;2024-02-16T16:48:01;22.20;;;20.20;;
81036;SDS011;70521;47.468;19.306;2024-02-16T16:51:02;22.92;;;21.02;;
81036;SDS011;70521;47.468;19.306;2024-02-16T16:54:03;20.77;;;18.98;;
81036;SDS011;70521;47.468;19.306;2024-02-16T16:57:05;19.70;;;18.08;;
81036;SDS011;70521;47.468;19.306;2024-02-16T17:00:06;19.17;;;17.45;;
81036;SDS011;70521;47.468;19.306;2024-02-16T17:03:07;20.40;;;18.52;;
81036;SDS011;70521;47.468;19.306;2024-02-16T17:06:08;22.70;;;21.00;;
81036;SDS011;70521;47.468;19.306;2024-02-16T17:09:10;20.13;;;18.25;;
81036;SDS011;70521;47.468;19.306;2024-02-16T17:12:11;21.23;;;19.52;;
81036;SDS011;70521;47.468;19.306;2024-02-16T17:15:16;17.95;;;16.05;;
81036;SDS011;70521;47.468;19.306;2024-02-16T17:18:20;23.23;;;21.63;;
81036;SDS011;70521;47.468;19.306;2024-02-16T17:21:21;19.95;;;18.23;;
81036;SDS011;70521;47.468;19.306;2024-02-16T17:24:22;19.67;;;17.98;;